Womac, Illinois
Current Conditions -  °F | °C
As of 2:15 PM on Saturday 25 Oct 2014 (Local Time) from K3LF Reporting Station
Clear Clear  
Wind Chill: 76°   Ceiling: Unl
Heat Index: 76°   Visibility: 10mi
Dew Point: 56°   Wind: 7mph
Humidity: 49%   Direction: 320°NW
Pressure: 30.01"   Gusts: NA
Location:  39.2714°N, 89.9463°W
Report Text: K3LF 251915Z AUTO 32006KT 10SM CLR 24/13 A3001 RMK AO2 T02440131
Loading
Personal Weather Stations






























Interactive Weather Map
Tropical Storm Tracking
New forecast layout! Learn more

10-Day Weather Forecast

Advertisements
Track Severe Weather on mobile